createdAt,value
2018-08-04T00:01:19.289Z,77.20
2018-08-04T00:03:47.662Z,78.10
2018-08-04T00:06:16.358Z,78.20
2018-08-04T00:08:44.661Z,77.30
2018-08-04T00:11:13.136Z,76.90
2018-08-04T00:13:41.473Z,77.20
2018-08-04T00:16:10.172Z,78.00
2018-08-04T00:18:38.521Z,77.40
2018-08-04T00:21:06.870Z,76.50
2018-08-04T00:23:35.254Z,76.60
2018-08-04T00:26:03.995Z,77.50
2018-08-04T00:28:32.817Z,78.70
2018-08-04T00:31:01.313Z,79.90
2018-08-04T00:33:29.625Z,81.20
2018-08-04T00:35:57.961Z,81.90
2018-08-04T00:38:26.323Z,82.30
2018-08-04T00:40:54.696Z,82.80
2018-08-04T00:43:23.645Z,83.50
2018-08-04T00:45:51.951Z,83.90
2018-08-04T00:48:20.293Z,83.90
2018-08-04T00:50:48.617Z,84.50
2018-08-04T00:53:16.969Z,84.90
2018-08-04T00:55:45.839Z,85.60
2018-08-04T00:58:14.343Z,85.90
2018-08-04T01:00:43.149Z,86.10
2018-08-04T01:03:11.456Z,86.30
2018-08-04T01:05:39.745Z,86.80
2018-08-04T01:08:08.456Z,86.10
2018-08-04T01:10:36.769Z,86.30
2018-08-04T01:13:05.115Z,87.20
2018-08-04T01:15:33.417Z,87.10
2018-08-04T01:18:01.981Z,85.80
2018-08-04T01:20:30.386Z,85.20
2018-08-04T01:22:58.691Z,84.80
2018-08-04T01:25:27.019Z,84.70
2018-08-04T01:27:55.300Z,85.90
2018-08-04T01:30:23.658Z,88.10
2018-08-04T01:32:52.137Z,87.10
2018-08-04T01:35:20.642Z,86.50
2018-08-04T01:37:48.970Z,86.10
2018-08-04T01:40:17.258Z,86.40
2018-08-04T01:42:45.554Z,86.50
2018-08-04T01:45:13.901Z,86.90
2018-08-04T01:47:42.456Z,88.20
2018-08-04T01:50:10.790Z,88.20
2018-08-04T01:52:39.129Z,88.20
2018-08-04T01:57:35.502Z,87.80
2018-08-04T02:00:03.985Z,86.90
2018-08-04T02:02:32.298Z,86.70
2018-08-04T02:05:00.621Z,86.30
2018-08-04T02:07:28.963Z,85.90
2018-08-04T02:09:57.313Z,86.10
2018-08-04T02:12:25.690Z,86.40
2018-08-04T02:14:54.024Z,86.20
2018-08-04T02:17:22.362Z,87.50
2018-08-04T02:19:50.781Z,88.60
2018-08-04T02:22:19.196Z,88.50
2018-08-04T02:24:47.658Z,88.00
2018-08-04T02:27:15.963Z,87.60
2018-08-04T02:29:44.317Z,87.60
2018-08-04T02:32:12.626Z,88.90
2018-08-04T02:34:40.942Z,90.00
2018-08-04T02:37:09.261Z,89.30
2018-08-04T02:39:37.604Z,88.40
2018-08-04T02:42:06.005Z,87.90
2018-08-04T02:44:34.378Z,87.60
2018-08-04T02:47:02.746Z,88.00
2018-08-04T02:49:31.088Z,88.30
2018-08-04T02:51:59.473Z,88.70
2018-08-04T02:54:27.819Z,89.30
2018-08-04T02:56:56.154Z,90.00
2018-08-04T02:59:24.443Z,89.70
2018-08-04T03:01:52.770Z,89.60
2018-08-04T03:04:21.164Z,89.90
2018-08-04T03:06:49.482Z,89.40
2018-08-04T03:09:17.806Z,89.90
2018-08-04T03:11:46.142Z,89.80
2018-08-04T03:14:14.426Z,90.80
2018-08-04T03:16:42.735Z,90.90
2018-08-04T03:19:11.041Z,90.30
2018-08-04T03:21:39.369Z,90.70
2018-08-04T03:24:07.703Z,91.10
2018-08-04T03:26:36.032Z,91.10
2018-08-04T03:29:04.382Z,91.40
2018-08-04T03:31:32.721Z,91.10
2018-08-04T03:34:01.041Z,90.70
2018-08-04T03:36:29.355Z,90.70
2018-08-04T03:38:57.656Z,90.50
2018-08-04T03:41:25.976Z,90.70
2018-08-04T03:43:54.352Z,91.20
2018-08-04T03:46:22.656Z,91.50
2018-08-04T03:48:50.964Z,91.10
2018-08-04T03:51:19.323Z,91.30
2018-08-04T03:53:47.651Z,91.70
2018-08-04T03:56:15.935Z,91.80
2018-08-04T03:58:44.244Z,91.90
2018-08-04T04:01:12.568Z,91.60
2018-08-04T04:03:40.894Z,91.10
2018-08-04T04:08:37.221Z,90.50
2018-08-04T04:11:05.539Z,90.50
2018-08-04T04:13:33.868Z,90.70
2018-08-04T04:16:02.294Z,91.30
2018-08-04T04:18:30.638Z,91.60
2018-08-04T04:20:59.071Z,91.60
2018-08-04T04:23:27.373Z,91.30
2018-08-04T04:25:55.714Z,91.50
2018-08-04T04:28:24.036Z,91.40
2018-08-04T04:30:52.372Z,91.30
2018-08-04T04:33:20.908Z,90.50
2018-08-04T04:35:49.293Z,90.10
2018-08-04T04:38:17.609Z,90.60
2018-08-04T04:40:45.929Z,91.40
2018-08-04T04:43:14.361Z,91.60
2018-08-04T04:45:42.678Z,91.70
2018-08-04T04:48:10.979Z,91.40
2018-08-04T04:50:39.326Z,90.80
2018-08-04T04:53:07.733Z,90.40
2018-08-04T04:55:36.110Z,90.30
2018-08-04T04:58:04.500Z,90.10
2018-08-04T05:00:32.875Z,89.50
2018-08-04T05:03:01.189Z,88.70
2018-08-04T05:05:29.525Z,88.70
2018-08-04T05:07:57.946Z,88.20
2018-08-04T05:10:26.570Z,88.30
2018-08-04T05:12:54.957Z,87.60
2018-08-04T05:15:24.305Z,87.30
2018-08-04T05:17:53.326Z,87.50
2018-08-04T05:20:22.725Z,89.50
2018-08-04T05:22:51.084Z,90.00
2018-08-04T05:25:19.485Z,88.80
2018-08-04T05:27:47.868Z,87.50
2018-08-04T05:30:16.201Z,87.60
2018-08-04T05:32:44.556Z,87.00
2018-08-04T05:35:12.987Z,87.20
2018-08-04T05:40:09.771Z,85.80
2018-08-04T05:42:38.257Z,85.60
2018-08-04T05:45:08.356Z,84.50
2018-08-04T05:47:36.772Z,85.60
2018-08-04T05:50:05.759Z,84.90
2018-08-04T05:52:34.093Z,84.30
2018-08-04T05:57:30.861Z,84.40
2018-08-04T05:59:59.181Z,84.00
2018-08-04T06:02:27.530Z,82.90
2018-08-04T06:04:55.841Z,82.40
2018-08-04T06:07:24.290Z,83.50
2018-08-04T06:09:52.685Z,83.30
2018-08-04T06:12:21.111Z,83.40
2018-08-04T06:14:50.969Z,83.30
2018-08-04T06:17:19.441Z,82.30
2018-08-04T06:19:47.740Z,82.90
2018-08-04T06:22:16.223Z,81.70
2018-08-04T06:24:44.664Z,81.40
2018-08-04T06:27:13.079Z,81.60
2018-08-04T06:29:41.750Z,82.20
2018-08-04T06:32:10.314Z,82.20
2018-08-04T06:34:39.026Z,82.40
2018-08-04T06:37:07.526Z,83.30
2018-08-04T06:39:35.960Z,80.90
2018-08-04T06:42:04.414Z,80.50
2018-08-04T06:44:32.877Z,80.50
2018-08-04T06:47:01.210Z,80.40
2018-08-04T06:49:29.909Z,80.60
2018-08-04T06:51:58.385Z,79.10
2018-08-04T06:54:27.105Z,79.10
2018-08-04T06:56:56.090Z,79.30
2018-08-04T06:59:24.509Z,79.10
2018-08-04T07:01:52.937Z,77.60
2018-08-04T07:04:21.517Z,76.70
2018-08-04T07:06:49.904Z,77.00
2018-08-04T07:09:18.396Z,78.00
2018-08-04T07:11:46.729Z,77.90
2018-08-04T07:14:15.283Z,77.30
2018-08-04T07:16:44.083Z,76.80
2018-08-04T07:19:12.719Z,77.40
2018-08-04T07:21:41.278Z,77.10
2018-08-04T07:24:10.088Z,77.50
2018-08-04T07:26:38.446Z,77.50
2018-08-04T07:29:06.834Z,77.10
2018-08-04T07:31:35.148Z,76.30
2018-08-04T07:34:03.527Z,76.60
2018-08-04T07:36:31.898Z,77.20
2018-08-04T07:39:00.323Z,77.50
2018-08-04T07:41:28.721Z,77.80
2018-08-04T07:43:57.049Z,77.30
2018-08-04T07:46:25.438Z,77.10
2018-08-04T07:48:54.261Z,78.00
2018-08-04T07:51:22.645Z,77.30
2018-08-04T07:53:52.607Z,77.20
2018-08-04T07:56:21.382Z,77.20
2018-08-04T07:58:49.891Z,76.80
2018-08-04T08:01:20.671Z,75.80
2018-08-04T08:04:01.326Z,75.80
2018-08-04T08:06:32.185Z,76.40
2018-08-04T08:09:10.237Z,76.40
2018-08-04T08:11:48.209Z,77.30
2018-08-04T08:14:17.561Z,75.60
2018-08-04T08:16:46.179Z,74.80
2018-08-04T08:19:17.629Z,74.90
2018-08-04T08:21:47.140Z,73.30
2018-08-04T08:24:18.163Z,73.70
2018-08-04T08:26:52.063Z,74.10
2018-08-04T08:29:27.266Z,72.70
2018-08-04T08:32:02.814Z,71.80
2018-08-04T08:34:33.759Z,71.90
2018-08-04T08:37:06.038Z,71.90
2018-08-04T08:39:41.817Z,72.00
2018-08-04T08:42:17.724Z,72.30
2018-08-04T08:44:51.237Z,72.10
2018-08-04T08:47:26.344Z,72.30
2018-08-04T09:03:58.783Z,70.40
2018-08-04T09:14:58.997Z,67.70
2018-08-04T09:24:06.570Z,67.80
2018-08-04T09:27:08.711Z,67.00
2018-08-04T09:29:37.332Z,65.70
2018-08-04T09:32:08.267Z,65.10
2018-08-04T09:35:08.527Z,65.70
2018-08-04T09:58:59.422Z,64.10
2018-08-04T10:01:38.924Z,62.20
2018-08-04T10:04:07.883Z,57.20
2018-08-04T10:06:36.601Z,57.70
2018-08-04T10:09:13.601Z,57.50
2018-08-04T10:11:42.281Z,57.10
2018-08-04T10:14:11.163Z,56.60
2018-08-04T10:16:42.614Z,56.30
2018-08-04T10:19:11.180Z,57.00
2018-08-04T10:21:40.813Z,55.70
2018-08-04T10:24:09.701Z,55.50
2018-08-04T10:26:40.346Z,53.90
2018-08-04T10:29:12.504Z,52.30
2018-08-04T10:31:41.556Z,52.70
2018-08-04T10:34:10.921Z,53.50
2018-08-04T10:36:41.003Z,53.10
2018-08-04T10:39:10.654Z,52.90
2018-08-04T10:41:39.400Z,52.30
2018-08-04T10:44:11.632Z,52.20
2018-08-04T10:46:40.520Z,52.30
2018-08-04T10:49:08.957Z,51.70
2018-08-04T10:51:37.964Z,51.80
2018-08-04T10:54:07.481Z,52.10
2018-08-04T10:56:36.044Z,51.80
2018-08-04T10:59:04.515Z,52.00
2018-08-04T11:01:33.448Z,52.30
2018-08-04T11:04:01.919Z,51.30
2018-08-04T11:06:30.475Z,51.40
2018-08-04T11:08:59.043Z,51.10
2018-08-04T11:11:27.554Z,50.90
2018-08-04T11:13:56.046Z,50.70
2018-08-04T11:16:24.813Z,51.70
2018-08-04T11:18:54.093Z,51.10
2018-08-04T11:21:22.512Z,51.50
2018-08-04T11:23:51.126Z,51.00
2018-08-04T11:26:19.964Z,51.20
2018-08-04T11:28:48.844Z,50.70
2018-08-04T11:31:17.754Z,49.70
2018-08-04T11:33:46.520Z,49.60
2018-08-04T11:36:16.475Z,49.30
2018-08-04T11:38:47.247Z,48.60
2018-08-04T11:41:15.658Z,49.00
2018-08-04T11:43:44.200Z,49.00
2018-08-04T11:46:12.666Z,48.50
2018-08-04T11:48:43.857Z,48.60
2018-08-04T11:51:12.709Z,47.80
2018-08-04T11:53:42.619Z,48.10
2018-08-04T11:56:16.299Z,48.30
2018-08-04T12:01:36.023Z,48.10
2018-08-04T12:09:15.913Z,47.10
2018-08-04T12:11:45.723Z,47.70
2018-08-04T12:14:18.023Z,47.70
2018-08-04T12:16:47.977Z,47.70
2018-08-04T12:19:18.376Z,46.90
2018-08-04T12:21:48.922Z,46.10
2018-08-04T12:24:18.273Z,46.70
2018-08-04T12:26:48.267Z,47.20
2018-08-04T12:29:17.189Z,47.80
2018-08-04T12:31:46.697Z,47.40
2018-08-04T12:34:15.513Z,48.10
2018-08-04T12:36:44.446Z,48.30
2018-08-04T12:39:13.179Z,47.20
2018-08-04T12:41:41.631Z,46.30
2018-08-04T12:44:11.927Z,46.40
2018-08-04T12:49:09.401Z,46.50
2018-08-04T12:51:39.089Z,46.10
2018-08-04T12:54:08.023Z,46.00
2018-08-04T12:56:36.475Z,45.30
2018-08-04T12:59:05.220Z,45.10
2018-08-04T13:01:34.038Z,45.90
2018-08-04T13:04:02.946Z,45.60
2018-08-04T13:06:31.418Z,45.40
2018-08-04T13:09:00.027Z,45.30
2018-08-04T13:11:28.365Z,45.30
2018-08-04T13:13:56.811Z,45.10
2018-08-04T13:16:25.641Z,44.60
2018-08-04T13:18:55.043Z,43.70
2018-08-04T13:21:23.426Z,44.20
2018-08-04T13:23:51.793Z,44.40
2018-08-04T13:26:20.658Z,44.30
2018-08-04T13:28:49.068Z,44.40
2018-08-04T13:31:17.761Z,43.90
2018-08-04T13:33:47.043Z,44.10
2018-08-04T13:36:15.996Z,43.70
2018-08-04T13:38:44.891Z,43.70
2018-08-04T13:43:41.761Z,43.10
2018-08-04T13:46:10.249Z,43.40
2018-08-04T13:48:39.495Z,43.10
2018-08-04T13:51:07.917Z,42.80
2018-08-04T13:53:36.337Z,42.90
2018-08-04T13:56:04.909Z,42.60
2018-08-04T13:58:33.983Z,43.40
2018-08-04T14:01:02.450Z,42.20
2018-08-04T14:03:30.876Z,42.10
2018-08-04T14:05:59.391Z,42.40
2018-08-04T14:08:28.493Z,42.20
2018-08-04T14:10:57.055Z,42.10
2018-08-04T14:13:25.721Z,42.20
2018-08-04T14:15:54.150Z,41.40
2018-08-04T14:18:22.665Z,42.30
2018-08-04T14:20:52.023Z,41.10
2018-08-04T14:23:20.423Z,40.90
2018-08-04T14:28:17.121Z,41.40
2018-08-04T14:30:45.443Z,41.00
2018-08-04T14:33:14.419Z,41.30
2018-08-04T14:35:45.709Z,41.50
2018-08-04T14:38:14.384Z,41.80
2018-08-04T14:40:43.139Z,42.00
2018-08-04T14:43:12.154Z,41.80
2018-08-04T14:45:40.516Z,41.30
2018-08-04T14:48:09.729Z,40.80
2018-08-04T14:50:38.055Z,40.80
2018-08-04T14:53:06.604Z,40.50
2018-08-04T14:55:38.003Z,40.90
2018-08-04T14:58:08.062Z,41.30
2018-08-04T15:00:36.456Z,41.10
2018-08-04T15:03:05.769Z,41.00
2018-08-04T15:05:36.030Z,41.30
2018-08-04T15:08:06.356Z,41.10
2018-08-04T15:10:37.220Z,40.40
2018-08-04T15:13:05.853Z,41.00
2018-08-04T15:15:34.345Z,40.50
2018-08-04T15:18:02.705Z,40.50
2018-08-04T15:20:31.657Z,40.40
2018-08-04T15:23:00.381Z,39.90
2018-08-04T15:25:28.955Z,40.30
2018-08-04T15:27:58.266Z,41.10
2018-08-04T15:30:27.054Z,40.30
2018-08-04T15:32:55.802Z,40.50
2018-08-04T15:35:24.329Z,40.90
2018-08-04T15:37:52.914Z,41.60
2018-08-04T15:40:21.387Z,41.90
2018-08-04T15:42:50.842Z,41.80
2018-08-04T15:45:19.863Z,42.20
2018-08-04T15:47:48.605Z,41.80
2018-08-04T15:50:18.375Z,40.80
2018-08-04T15:52:47.028Z,39.90
2018-08-04T15:55:15.750Z,39.60
2018-08-04T15:57:44.510Z,40.40
2018-08-04T16:00:12.882Z,40.70
2018-08-04T16:02:41.363Z,40.10
2018-08-04T16:05:10.725Z,39.30
2018-08-04T16:07:39.123Z,40.00
2018-08-04T16:10:07.655Z,40.60
2018-08-04T16:12:36.095Z,39.50
2018-08-04T16:15:06.082Z,38.80
2018-08-04T16:17:34.522Z,39.50
2018-08-04T16:20:03.679Z,39.30
2018-08-04T16:22:31.993Z,39.10
2018-08-04T16:25:01.265Z,39.20
2018-08-04T16:27:30.008Z,39.00
2018-08-04T16:30:00.075Z,39.40
2018-08-04T16:32:28.889Z,38.80
2018-08-04T16:34:57.770Z,38.80
2018-08-04T16:37:32.375Z,39.60
2018-08-04T16:40:01.812Z,40.00
2018-08-04T16:42:30.313Z,40.30
2018-08-04T16:44:58.758Z,40.60
2018-08-04T16:47:27.863Z,39.90
2018-08-04T16:49:56.945Z,39.90
2018-08-04T16:52:25.265Z,40.10
2018-08-04T16:54:53.615Z,41.00
2018-08-04T16:57:22.328Z,40.40
2018-08-04T16:59:50.832Z,41.40
2018-08-04T17:02:19.472Z,41.70
2018-08-04T17:04:48.823Z,42.10
2018-08-04T17:09:46.081Z,44.90
2018-08-04T17:12:15.597Z,45.60
2018-08-04T17:14:44.426Z,46.30
2018-08-04T17:17:12.872Z,46.40
2018-08-04T17:19:41.293Z,46.70
2018-08-04T17:22:09.674Z,47.30
2018-08-04T17:24:38.062Z,48.10
2018-08-04T17:27:06.968Z,47.60
2018-08-04T17:29:35.970Z,47.90
2018-08-04T17:32:06.363Z,47.20
2018-08-04T17:34:35.250Z,46.70
2018-08-04T17:37:04.652Z,48.10
2018-08-04T17:39:34.803Z,48.60
2018-08-04T17:42:03.825Z,49.70
2018-08-04T17:44:35.454Z,50.20
2018-08-04T17:47:05.723Z,50.40
2018-08-04T17:49:34.618Z,50.30
2018-08-04T17:52:04.787Z,50.40
2018-08-04T17:54:38.578Z,50.40
2018-08-04T17:57:07.566Z,50.40
2018-08-04T17:59:36.238Z,50.90
2018-08-04T18:02:04.785Z,50.90
2018-08-04T18:04:33.277Z,50.60
2018-08-04T18:07:05.858Z,50.70
2018-08-04T18:09:38.990Z,51.10
2018-08-04T18:12:07.784Z,51.20
2018-08-04T18:14:37.478Z,51.20
2018-08-04T18:17:07.101Z,51.30
2018-08-04T18:19:35.909Z,51.70
2018-08-04T18:22:05.941Z,52.30
2018-08-04T18:24:51.063Z,52.80
2018-08-04T18:27:25.173Z,53.10
2018-08-04T18:30:01.955Z,53.60
2018-08-04T18:32:32.177Z,54.10
2018-08-04T18:35:04.533Z,55.00
2018-08-04T18:37:34.570Z,55.20
2018-08-04T18:40:03.255Z,55.50
2018-08-04T18:42:31.759Z,55.80
2018-08-04T18:45:05.031Z,55.70
2018-08-04T18:47:52.598Z,56.40
2018-08-04T18:50:26.355Z,57.40
2018-08-04T18:53:13.225Z,58.10
2018-08-04T18:55:46.455Z,59.60
2018-08-04T18:58:17.785Z,60.50
2018-08-04T19:00:46.961Z,60.80
2018-08-04T19:06:23.857Z,62.60
2018-08-04T19:08:57.908Z,63.30
2018-08-04T19:11:28.419Z,64.30
2018-08-04T19:14:01.345Z,64.60
2018-08-04T19:16:30.932Z,65.40
2018-08-04T19:21:47.496Z,66.90
2018-08-04T19:24:27.168Z,67.70
2018-08-04T19:26:55.824Z,67.70
2018-08-04T19:29:28.609Z,68.10
2018-08-04T19:31:58.628Z,69.70
2018-08-04T19:34:27.806Z,70.90
2018-08-04T19:36:56.204Z,71.40
2018-08-04T19:39:24.634Z,71.70
2018-08-04T19:41:53.189Z,72.30
2018-08-04T19:44:21.611Z,73.40
2018-08-04T19:46:50.243Z,74.30
2018-08-04T19:49:19.204Z,74.60
2018-08-04T19:51:48.103Z,74.10
2018-08-04T19:54:16.480Z,74.60
2018-08-04T19:56:44.984Z,76.80
2018-08-04T19:59:13.328Z,76.60
2018-08-04T20:01:41.661Z,77.80
2018-08-04T20:04:10.007Z,78.70
2018-08-04T20:06:38.506Z,78.30
2018-08-04T20:09:09.154Z,78.70
2018-08-04T20:11:37.548Z,79.30
2018-08-04T20:14:10.824Z,79.80
2018-08-04T20:16:39.149Z,79.90
2018-08-04T20:19:07.525Z,80.00
2018-08-04T20:21:35.900Z,80.50
2018-08-04T20:24:04.439Z,81.50
2018-08-04T20:26:32.762Z,82.40
2018-08-04T20:29:02.130Z,82.30
2018-08-04T20:31:30.499Z,82.60
2018-08-04T20:33:58.940Z,83.30
2018-08-04T20:36:27.296Z,83.50
2018-08-04T20:38:55.688Z,83.50
2018-08-04T20:41:24.088Z,83.30
2018-08-04T20:43:52.589Z,84.00
2018-08-04T20:46:20.916Z,85.20
2018-08-04T20:48:49.326Z,85.50
2018-08-04T20:51:18.442Z,86.10
2018-08-04T20:53:46.897Z,86.60
2018-08-04T20:56:15.260Z,85.80
2018-08-04T20:58:43.622Z,86.20
2018-08-04T21:01:23.349Z,86.60
2018-08-04T21:03:52.588Z,86.50
2018-08-04T21:06:21.208Z,86.40
2018-08-04T21:08:49.532Z,87.30
2018-08-04T21:11:17.901Z,88.40
2018-08-04T21:13:46.917Z,88.90
2018-08-04T21:16:15.221Z,88.70
2018-08-04T21:18:43.539Z,89.20
2018-08-04T21:21:13.125Z,89.60
2018-08-04T21:23:41.453Z,90.00
2018-08-04T21:26:09.874Z,90.20
2018-08-04T21:28:38.351Z,90.20
2018-08-04T21:31:06.801Z,90.60
2018-08-04T21:33:35.284Z,90.50
2018-08-04T21:36:03.644Z,90.30
2018-08-04T21:38:33.241Z,90.60
2018-08-04T21:41:01.555Z,90.60
2018-08-04T21:43:30.269Z,90.70
2018-08-04T21:45:58.631Z,90.90
2018-08-04T21:48:27.116Z,91.00
2018-08-04T21:50:55.401Z,91.20
2018-08-04T21:53:24.532Z,91.10
2018-08-04T21:55:53.186Z,91.10
2018-08-04T21:58:22.128Z,91.10
2018-08-04T22:00:55.913Z,91.50
2018-08-04T22:03:24.237Z,91.80
2018-08-04T22:05:52.719Z,91.90
2018-08-04T22:08:32.377Z,92.30
2018-08-04T22:11:00.693Z,92.30
2018-08-04T22:13:29.847Z,92.50
2018-08-04T22:15:58.141Z,92.50
2018-08-04T22:18:26.467Z,92.60
2018-08-04T22:20:54.869Z,92.90
2018-08-04T22:23:23.200Z,92.90
2018-08-04T22:25:51.634Z,93.10
2018-08-04T22:28:19.925Z,92.90
2018-08-04T22:30:48.297Z,92.80
2018-08-04T22:33:16.817Z,93.30
2018-08-04T22:35:45.165Z,93.50
2018-08-04T22:38:13.565Z,93.60
2018-08-04T22:40:41.905Z,93.70
2018-08-04T22:43:10.245Z,93.50
2018-08-04T22:46:19.169Z,93.80
2018-08-04T22:48:49.636Z,93.90
2018-08-04T22:51:20.391Z,94.10
2018-08-04T22:53:48.760Z,94.40
2018-08-04T22:56:17.184Z,94.60
2018-08-04T22:58:45.520Z,94.80
2018-08-04T23:01:14.313Z,95.00
2018-08-04T23:06:11.355Z,94.80
2018-08-04T23:08:39.705Z,94.80
2018-08-04T23:11:08.051Z,95.20
2018-08-04T23:13:36.389Z,95.30
2018-08-04T23:16:04.777Z,95.60
2018-08-04T23:18:33.161Z,95.60
2018-08-04T23:21:01.544Z,95.80
2018-08-04T23:23:29.878Z,95.70
2018-08-04T23:25:58.247Z,95.90
2018-08-04T23:28:26.564Z,96.10
2018-08-04T23:30:54.946Z,95.90
2018-08-04T23:33:23.275Z,95.90
2018-08-04T23:35:51.590Z,96.00
2018-08-04T23:38:19.947Z,96.10
2018-08-04T23:40:48.236Z,96.40
2018-08-04T23:43:16.611Z,96.60
2018-08-04T23:45:44.934Z,96.80
2018-08-04T23:48:13.273Z,96.80
2018-08-04T23:50:41.606Z,96.80
2018-08-04T23:53:09.956Z,96.90
2018-08-04T23:55:38.431Z,96.80
2018-08-04T23:58:06.808Z,97.00
